Time;durP1;ratioP1;P1;durP2;ratioP2;P2;SDS_P1;SDS_P2;PMS_P1;PMS_P2;Temp;Humidity;BMP_temperature;BMP_pressure;BME280_temperature;BME280_humidity;BME280_pressure;Samples;Min_cycle;Max_cycle;Signal;HPM_P1;HPM_P2
2021/05/27 00:00:18;;;;;;;4.60;3.97;;;;;;;;;;5094079;28;20370;-63
2021/05/27 00:02:43;;;;;;;6.70;3.78;;;;;;;;;;5093876;28;20023;-63
2021/05/27 00:05:09;;;;;;;4.78;3.40;;;;;;;;;;5075354;28;20032;-63
2021/05/27 00:07:35;;;;;;;5.72;3.15;;;;;;;;;;5093568;28;20016;-63
2021/05/27 00:10:00;;;;;;;4.45;3.53;;;;;;;;;;5093663;28;20032;-63
2021/05/27 00:12:26;;;;;;;4.55;3.10;;;;;;;;;;5093709;28;20020;-63
2021/05/27 00:14:52;;;;;;;3.17;2.85;;;;;;;;;;5093750;28;20089;-63
2021/05/27 00:17:18;;;;;;;3.17;2.80;;;;;;;;;;5093681;28;20024;-65
2021/05/27 00:19:44;;;;;;;2.85;2.42;;;;;;;;;;5093838;28;20430;-63
2021/05/27 00:22:09;;;;;;;2.95;2.35;;;;;;;;;;5093456;28;20401;-63
2021/05/27 00:24:36;;;;;;;5.60;2.80;;;;;;;;;;5093551;28;20024;-63
2021/05/27 00:27:03;;;;;;;3.70;2.75;;;;;;;;;;5075457;28;20016;-63
2021/05/27 00:29:28;;;;;;;6.82;3.35;;;;;;;;;;5093598;28;20028;-63
2021/05/27 00:31:54;;;;;;;2.85;2.58;;;;;;;;;;5075379;28;20020;-63
2021/05/27 00:34:19;;;;;;;2.88;2.60;;;;;;;;;;5075543;28;20028;-63
2021/05/27 00:36:45;;;;;;;3.10;2.13;;;;;;;;;;5093289;28;20077;-62
2021/05/27 00:39:10;;;;;;;2.85;2.13;;;;;;;;;;5108916;28;20056;-63
2021/05/27 00:41:36;;;;;;;4.68;2.10;;;;;;;;;;5093104;28;20035;-62
2021/05/27 00:44:02;;;;;;;5.35;2.05;;;;;;;;;;5075249;28;20123;-63
2021/05/27 00:46:27;;;;;;;4.43;2.15;;;;;;;;;;5093178;28;20417;-62
2021/05/27 00:49:01;;;;;;;3.72;2.28;;;;;;;;;;5093163;28;20433;-62
2021/05/27 00:51:28;;;;;;;2.03;1.80;;;;;;;;;;5093225;28;20393;-62
2021/05/27 00:53:55;;;;;;;2.67;2.20;;;;;;;;;;5075309;28;20016;-62
2021/05/27 00:56:20;;;;;;;5.95;2.17;;;;;;;;;;5074900;28;20032;-61
2021/05/27 00:58:46;;;;;;;2.15;1.88;;;;;;;;;;5093026;28;20024;-61
2021/05/27 01:01:12;;;;;;;2.75;2.28;;;;;;;;;;5074842;28;20481;-62
2021/05/27 01:03:37;;;;;;;3.40;1.73;;;;;;;;;;5092796;28;20023;-62
2021/05/27 01:06:03;;;;;;;2.63;1.65;;;;;;;;;;5093273;28;20028;-62
2021/05/27 01:08:29;;;;;;;1.77;1.55;;;;;;;;;;5074725;28;20030;-62
2021/05/27 01:10:55;;;;;;;2.20;1.48;;;;;;;;;;5074640;28;20020;-62
2021/05/27 01:13:21;;;;;;;2.30;1.60;;;;;;;;;;5074951;28;20016;-62
2021/05/27 01:15:47;;;;;;;2.50;1.67;;;;;;;;;;5074990;28;20474;-62
2021/05/27 01:18:14;;;;;;;3.05;2.00;;;;;;;;;;5093018;28;20042;-62
2021/05/27 01:20:41;;;;;;;2.80;1.52;;;;;;;;;;5078238;28;20463;-62
2021/05/27 01:23:09;;;;;;;2.78;1.65;;;;;;;;;;5078553;28;20024;-62
2021/05/27 01:25:37;;;;;;;;;;;;;;;;;;5078743;28;20095;-62
2021/05/27 01:28:04;;;;;;;3.40;1.85;;;;;;;;;;5078356;28;19904;-62
2021/05/27 01:30:30;;;;;;;3.47;1.52;;;;;;;;;;5078047;28;20545;-62
2021/05/27 01:32:55;;;;;;;2.33;1.35;;;;;;;;;;5078210;28;20036;-62
2021/05/27 01:35:23;;;;;;;2.15;1.80;;;;;;;;;;5078240;28;20028;-62
2021/05/27 01:37:48;;;;;;;3.03;1.35;;;;;;;;;;5077560;28;20486;-62
2021/05/27 01:40:15;;;;;;;2.40;1.45;;;;;;;;;;5078588;28;20044;-62
2021/05/27 01:42:41;;;;;;;1.58;1.48;;;;;;;;;;5096231;28;20118;-63
2021/05/27 01:45:07;;;;;;;1.48;1.20;;;;;;;;;;5078195;28;20440;-63
2021/05/27 01:47:33;;;;;;;1.85;1.25;;;;;;;;;;5061594;28;20009;-63
2021/05/27 01:49:58;;;;;;;2.75;1.50;;;;;;;;;;5096118;28;20062;-63
2021/05/27 01:52:25;;;;;;;1.67;1.55;;;;;;;;;;5077916;28;20081;-63
2021/05/27 01:54:51;;;;;;;1.58;1.48;;;;;;;;;;5078044;28;20547;-63
2021/05/27 01:57:17;;;;;;;2.03;1.50;;;;;;;;;;5077992;28;20023;-63
2021/05/27 01:59:44;;;;;;;1.45;1.20;;;;;;;;;;5078151;28;20450;-63
2021/05/27 02:02:12;;;;;;;1.33;1.23;;;;;;;;;;5061434;28;20027;-63
2021/05/27 02:04:37;;;;;;;2.08;1.25;;;;;;;;;;5060883;28;20464;-63
2021/05/27 02:07:13;;;;;;;1.58;1.08;;;;;;;;;;5077703;28;20027;-63
2021/05/27 02:09:40;;;;;;;3.20;1.40;;;;;;;;;;5077755;28;20024;-63
2021/05/27 02:12:07;;;;;;;1.17;1.08;;;;;;;;;;5077556;28;20019;-63
2021/05/27 02:14:32;;;;;;;2.03;1.20;;;;;;;;;;5077453;28;20032;-63
2021/05/27 02:16:58;;;;;;;1.30;1.08;;;;;;;;;;5077716;28;20351;-63
2021/05/27 02:19:23;;;;;;;1.08;0.95;;;;;;;;;;5077548;28;20074;-63
2021/05/27 02:21:49;;;;;;;1.15;0.90;;;;;;;;;;5077628;28;20430;-63
2021/05/27 02:24:20;;;;;;;0.88;0.88;;;;;;;;;;5077405;28;20119;-63
2021/05/27 02:26:46;;;;;;;0.70;0.70;;;;;;;;;;5060535;28;20111;-64
2021/05/27 02:29:12;;;;;;;1.00;0.73;;;;;;;;;;5077228;28;20025;-64
2021/05/27 02:31:39;;;;;;;2.05;0.77;;;;;;;;;;5094251;28;20497;-64
2021/05/27 02:34:07;;;;;;;0.90;0.90;;;;;;;;;;5094943;28;20020;-63
2021/05/27 02:36:35;;;;;;;2.03;0.90;;;;;;;;;;5077569;28;20039;-63
2021/05/27 02:39:03;;;;;;;1.00;0.80;;;;;;;;;;5076756;28;20524;-62
2021/05/27 02:41:37;;;;;;;2.05;0.80;;;;;;;;;;5077437;28;20101;-63
2021/05/27 02:44:03;;;;;;;0.80;0.80;;;;;;;;;;5077199;28;20422;-63
2021/05/27 02:46:32;;;;;;;0.60;0.50;;;;;;;;;;5076706;28;20020;-64
2021/05/27 02:48:58;;;;;;;0.57;0.57;;;;;;;;;;5077012;28;20036;-63
2021/05/27 02:51:23;;;;;;;0.65;0.65;;;;;;;;;;5095083;28;20370;-63
2021/05/27 02:53:49;;;;;;;1.50;0.68;;;;;;;;;;5076747;28;20073;-63
2021/05/27 02:56:17;;;;;;;0.80;0.70;;;;;;;;;;5076518;28;20043;-63
2021/05/27 02:58:44;;;;;;;0.60;0.60;;;;;;;;;;5076878;28;20032;-63
2021/05/27 03:01:10;;;;;;;0.43;0.43;;;;;;;;;;5076868;28;20035;-64
2021/05/27 03:03:46;;;;;;;0.40;0.40;;;;;;;;;;5076589;28;20032;-64
2021/05/27 03:06:12;;;;;;;0.70;0.70;;;;;;;;;;5094592;28;20039;-63
2021/05/27 03:08:43;;;;;;;0.55;0.55;;;;;;;;;;5076552;28;20021;-63
2021/05/27 03:11:09;;;;;;;1.00;0.52;;;;;;;;;;5076492;28;20020;-63
2021/05/27 03:13:37;;;;;;;0.50;0.50;;;;;;;;;;5094382;28;20042;-63
2021/05/27 03:16:04;;;;;;;0.45;0.45;;;;;;;;;;5076189;28;20059;-63
2021/05/27 03:18:31;;;;;;;0.70;0.70;;;;;;;;;;5076251;28;20115;-64
2021/05/27 03:20:59;;;;;;;0.60;0.60;;;;;;;;;;5094405;28;20094;-62
2021/05/27 03:23:26;;;;;;;0.50;0.50;;;;;;;;;;5075873;28;20024;-62
2021/05/27 03:25:52;;;;;;;1.33;0.60;;;;;;;;;;5059219;28;20546;-62
2021/05/27 03:28:18;;;;;;;0.60;0.60;;;;;;;;;;5076212;28;20111;-62
2021/05/27 03:30:44;;;;;;;1.83;0.50;;;;;;;;;;5094359;28;20156;-62
2021/05/27 03:33:11;;;;;;;0.70;0.65;;;;;;;;;;5076153;28;20020;-62
2021/05/27 03:35:39;;;;;;;0.55;0.40;;;;;;;;;;5093974;28;20039;-62
2021/05/27 03:38:05;;;;;;;0.82;0.52;;;;;;;;;;5075134;28;20040;-62
2021/05/27 03:40:30;;;;;;;0.55;0.43;;;;;;;;;;5093966;28;20046;-61
2021/05/27 03:42:57;;;;;;;0.60;0.40;;;;;;;;;;5075595;28;20477;-63
2021/05/27 03:45:28;;;;;;;0.85;0.55;;;;;;;;;;5075806;28;20496;-62
2021/05/27 03:48:13;;;;;;;0.90;0.60;;;;;;;;;;5087120;28;20039;-62
2021/05/27 03:50:40;;;;;;;0.68;0.50;;;;;;;;;;5073293;28;20033;-61
2021/05/27 03:53:09;;;;;;;1.13;0.50;;;;;;;;;;5054897;28;20020;-62
2021/05/27 03:55:36;;;;;;;0.63;0.50;;;;;;;;;;5073342;28;20037;-62
2021/05/27 04:00:41;;;;;;;0.50;0.50;;;;;;;;;;5054750;28;20378;-62
2021/05/27 04:00:52;;;;;;;0.65;0.43;;;;;;;;;;5053507;28;20362;-62
2021/05/27 04:09:17;;;;;;;0.50;0.50;;;;;;;;;;5073490;28;20055;-62
2021/05/27 04:11:43;;;;;;;0.50;0.50;;;;;;;;;;5073577;28;20482;-62
2021/05/27 04:14:08;;;;;;;0.73;0.60;;;;;;;;;;5073136;28;20024;-62
2021/05/27 04:16:34;;;;;;;1.05;0.55;;;;;;;;;;5072676;28;20382;-62
2021/05/27 04:19:00;;;;;;;1.00;0.60;;;;;;;;;;5073683;28;20060;-62
2021/05/27 04:21:25;;;;;;;0.50;0.50;;;;;;;;;;5073418;28;20021;-62
2021/05/27 04:23:51;;;;;;;0.50;0.50;;;;;;;;;;5073373;28;20036;-62
2021/05/27 04:26:16;;;;;;;0.60;0.60;;;;;;;;;;5072931;28;20479;-62
2021/05/27 04:28:43;;;;;;;0.52;0.52;;;;;;;;;;5073142;28;20422;-62
2021/05/27 04:31:10;;;;;;;0.50;0.50;;;;;;;;;;5073196;28;20390;-61
2021/05/27 04:33:39;;;;;;;0.50;0.40;;;;;;;;;;5073248;28;20115;-62
2021/05/27 04:36:05;;;;;;;0.60;0.60;;;;;;;;;;5073516;28;20455;-62
2021/05/27 04:38:31;;;;;;;0.50;0.47;;;;;;;;;;5081746;28;20064;-62
2021/05/27 04:40:57;;;;;;;0.50;0.47;;;;;;;;;;5075196;28;20036;-62
2021/05/27 04:43:22;;;;;;;0.50;0.50;;;;;;;;;;5074942;28;20039;-62
2021/05/27 04:45:48;;;;;;;0.45;0.45;;;;;;;;;;5093230;28;20030;-62
2021/05/27 04:48:15;;;;;;;0.30;0.30;;;;;;;;;;5092887;28;20008;-62
2021/05/27 04:50:41;;;;;;;0.65;0.45;;;;;;;;;;5093170;28;20107;-62
2021/05/27 04:53:07;;;;;;;0.70;0.60;;;;;;;;;;5093074;28;20517;-62
2021/05/27 04:55:33;;;;;;;1.83;0.75;;;;;;;;;;5096045;28;20379;-62
2021/05/27 04:57:59;;;;;;;0.52;0.45;;;;;;;;;;5097112;28;20038;-62
2021/05/27 05:00:27;;;;;;;0.70;0.63;;;;;;;;;;5096853;28;20436;-62
2021/05/27 05:02:53;;;;;;;0.60;0.60;;;;;;;;;;5096950;28;20082;-62
2021/05/27 05:05:18;;;;;;;1.65;0.70;;;;;;;;;;5095645;28;20032;-62
2021/05/27 05:07:44;;;;;;;0.60;0.60;;;;;;;;;;5096880;28;20016;-62
2021/05/27 05:10:11;;;;;;;1.33;0.73;;;;;;;;;;5078605;28;20066;-62
2021/05/27 05:12:47;;;;;;;0.90;0.60;;;;;;;;;;5096670;28;20035;-62
2021/05/27 05:15:12;;;;;;;1.02;0.52;;;;;;;;;;5096941;28;20486;-62
2021/05/27 05:17:39;;;;;;;1.05;0.47;;;;;;;;;;5096817;28;20055;-62
2021/05/27 05:20:05;;;;;;;0.98;0.57;;;;;;;;;;5096534;28;20162;-62
2021/05/27 05:22:30;;;;;;;1.30;0.70;;;;;;;;;;5096667;28;20060;-62
2021/05/27 05:24:57;;;;;;;2.03;0.50;;;;;;;;;;5096442;28;20039;-62
2021/05/27 05:27:22;;;;;;;0.98;0.30;;;;;;;;;;5096639;28;20047;-62
2021/05/27 05:29:48;;;;;;;0.98;0.70;;;;;;;;;;5096799;28;20051;-63
2021/05/27 05:32:13;;;;;;;1.00;0.75;;;;;;;;;;5078257;28;20017;-62
2021/05/27 05:34:39;;;;;;;0.60;0.57;;;;;;;;;;5096415;28;20035;-62
2021/05/27 05:37:06;;;;;;;0.50;0.50;;;;;;;;;;5096315;28;20012;-62
2021/05/27 05:39:31;;;;;;;0.73;0.60;;;;;;;;;;5095987;28;20047;-62
2021/05/27 05:41:57;;;;;;;1.38;0.88;;;;;;;;;;5096080;28;20032;-62
2021/05/27 05:44:23;;;;;;;0.68;0.65;;;;;;;;;;5095813;28;20382;-62
2021/05/27 05:46:48;;;;;;;0.73;0.43;;;;;;;;;;5096158;28;20024;-62
2021/05/27 05:49:14;;;;;;;1.17;0.60;;;;;;;;;;5096230;28;20031;-62
2021/05/27 05:51:39;;;;;;;2.75;0.85;;;;;;;;;;5096113;28;20443;-62
2021/05/27 05:54:05;;;;;;;2.58;0.90;;;;;;;;;;5096338;28;20020;-62
2021/05/27 05:56:30;;;;;;;0.80;0.80;;;;;;;;;;5095770;28;20027;-62
2021/05/27 05:58:56;;;;;;;0.60;0.60;;;;;;;;;;5095947;28;20106;-62
2021/05/27 06:01:21;;;;;;;1.45;1.15;;;;;;;;;;5095824;28;20378;-62
2021/05/27 06:03:47;;;;;;;1.20;1.13;;;;;;;;;;5077745;28;20028;-62
2021/05/27 06:06:48;;;;;;;1.13;0.95;;;;;;;;;;5033462;28;20033;-62
2021/05/27 06:09:19;;;;;;;1.30;0.90;;;;;;;;;;5085317;28;20482;-62
2021/05/27 06:11:44;;;;;;;2.20;1.08;;;;;;;;;;5095685;28;20062;-62
2021/05/27 06:14:10;;;;;;;1.23;0.93;;;;;;;;;;5095693;28;20382;-62
2021/05/27 06:16:36;;;;;;;1.15;0.90;;;;;;;;;;5095642;28;20028;-62
2021/05/27 06:19:01;;;;;;;1.90;1.17;;;;;;;;;;5095806;28;20012;-62
2021/05/27 06:21:44;;;;;;;1.70;0.90;;;;;;;;;;5077465;28;20113;-62
2021/05/27 06:24:18;;;;;;;1.73;1.20;;;;;;;;;;5077428;28;20035;-62
2021/05/27 06:26:44;;;;;;;1.65;0.90;;;;;;;;;;5094616;28;20032;-62
2021/05/27 06:29:09;;;;;;;2.25;1.23;;;;;;;;;;5095190;28;20115;-62
2021/05/27 06:31:35;;;;;;;1.60;1.08;;;;;;;;;;5095194;28;20103;-62
2021/05/27 06:34:00;;;;;;;0.10;0.10;;;;;;;;;;5077130;28;20474;-62
2021/05/27 06:36:26;;;;;;;1.17;0.80;;;;;;;;;;5095302;28;20106;-62
2021/05/27 06:38:51;;;;;;;1.55;1.08;;;;;;;;;;5094612;28;20527;-62
2021/05/27 06:41:19;;;;;;;1.60;1.13;;;;;;;;;;5095071;28;20024;-62
2021/05/27 06:43:48;;;;;;;2.03;1.10;;;;;;;;;;5094715;28;20024;-62
2021/05/27 06:46:13;;;;;;;0.50;0.50;;;;;;;;;;5094655;28;20035;-62
2021/05/27 06:48:39;;;;;;;1.77;0.93;;;;;;;;;;5076114;28;20020;-62
2021/05/27 06:51:05;;;;;;;0.82;0.75;;;;;;;;;;5075335;28;20047;-62
2021/05/27 06:53:30;;;;;;;2.75;1.42;;;;;;;;;;5094359;28;20470;-62
2021/05/27 06:55:56;;;;;;;8.73;1.10;;;;;;;;;;5094071;28;20082;-62
2021/05/27 06:58:21;;;;;;;1.02;0.35;;;;;;;;;;5075966;28;20425;-62
2021/05/27 07:00:47;;;;;;;0.70;0.65;;;;;;;;;;5093971;28;20082;-62
2021/05/27 07:03:16;;;;;;;1.73;0.90;;;;;;;;;;5076256;28;20106;-62
2021/05/27 07:05:42;;;;;;;2.00;0.50;;;;;;;;;;5094283;28;20505;-62
2021/05/27 07:08:07;;;;;;;1.20;1.10;;;;;;;;;;5094065;28;20095;-62
2021/05/27 07:10:33;;;;;;;1.33;0.93;;;;;;;;;;5094278;28;20020;-62
2021/05/27 07:13:00;;;;;;;1.25;1.15;;;;;;;;;;5094273;28;20012;-62
2021/05/27 07:15:26;;;;;;;3.42;1.10;;;;;;;;;;5094167;28;20032;-62
2021/05/27 07:17:52;;;;;;;1.40;1.00;;;;;;;;;;5093643;28;20024;-62
2021/05/27 07:20:19;;;;;;;1.00;0.90;;;;;;;;;;5093750;28;20034;-62
2021/05/27 07:22:45;;;;;;;0.77;0.70;;;;;;;;;;5094363;28;20020;-62
2021/05/27 07:25:11;;;;;;;1.75;0.88;;;;;;;;;;5094122;28;20462;-62
2021/05/27 07:27:37;;;;;;;1.73;1.00;;;;;;;;;;5093964;28;20070;-62
2021/05/27 07:30:03;;;;;;;1.42;0.90;;;;;;;;;;5094131;28;20115;-62
2021/05/27 07:32:28;;;;;;;2.90;0.88;;;;;;;;;;5075181;28;20012;-62
2021/05/27 07:34:54;;;;;;;3.45;1.13;;;;;;;;;;5092184;28;20097;-62
2021/05/27 07:37:19;;;;;;;1.15;0.60;;;;;;;;;;5093100;28;20040;-61
2021/05/27 07:39:46;;;;;;;0.80;0.80;;;;;;;;;;5094010;28;20040;-62
2021/05/27 07:42:12;;;;;;;1.00;0.80;;;;;;;;;;5093967;28;20024;-61
2021/05/27 07:44:37;;;;;;;0.77;0.77;;;;;;;;;;5093786;28;20024;-62
2021/05/27 07:47:03;;;;;;;0.75;0.75;;;;;;;;;;5093678;28;20023;-61
2021/05/27 07:49:29;;;;;;;0.60;0.60;;;;;;;;;;5093857;28;20534;-62
2021/05/27 07:51:55;;;;;;;1.15;1.10;;;;;;;;;;5094020;28;20115;-62
2021/05/27 07:54:21;;;;;;;1.92;1.70;;;;;;;;;;5075904;28;20031;-61
2021/05/27 07:56:46;;;;;;;1.70;1.20;;;;;;;;;;5093693;28;20019;-62
2021/05/27 07:59:13;;;;;;;1.23;0.90;;;;;;;;;;5093369;28;20075;-61
2021/05/27 08:01:39;;;;;;;0.98;0.90;;;;;;;;;;5093602;28;20530;-62
2021/05/27 08:04:05;;;;;;;1.20;0.90;;;;;;;;;;5093307;28;20028;-61
2021/05/27 08:06:30;;;;;;;0.80;0.80;;;;;;;;;;5093450;28;20028;-62
2021/05/27 08:08:56;;;;;;;0.90;0.82;;;;;;;;;;5093380;28;20464;-61
2021/05/27 08:11:21;;;;;;;1.13;0.95;;;;;;;;;;5093598;28;20063;-61
2021/05/27 08:13:47;;;;;;;2.15;0.88;;;;;;;;;;5093232;28;20070;-61
2021/05/27 08:16:12;;;;;;;1.67;0.80;;;;;;;;;;5093497;28;20019;-61
2021/05/27 08:18:38;;;;;;;0.60;0.60;;;;;;;;;;5093251;28;20108;-62
2021/05/27 08:21:03;;;;;;;1.38;0.80;;;;;;;;;;5093643;28;20024;-62
2021/05/27 08:23:29;;;;;;;1.10;0.65;;;;;;;;;;5093322;28;20024;-62
2021/05/27 08:25:54;;;;;;;1.80;1.00;;;;;;;;;;5075168;28;20095;-62
2021/05/27 08:28:20;;;;;;;2.22;1.10;;;;;;;;;;5093075;28;20394;-61
2021/05/27 08:30:45;;;;;;;1.20;0.82;;;;;;;;;;5096649;28;20039;-62
2021/05/27 08:33:11;;;;;;;1.50;1.00;;;;;;;;;;5097471;28;20025;-61
2021/05/27 08:35:36;;;;;;;0.60;0.60;;;;;;;;;;5097537;28;20016;-62
2021/05/27 08:38:02;;;;;;;1.10;0.88;;;;;;;;;;5097094;28;20102;-61
2021/05/27 08:40:28;;;;;;;0.90;0.70;;;;;;;;;;5079322;28;20032;-62
2021/05/27 08:42:56;;;;;;;2.90;0.68;;;;;;;;;;5079359;28;20433;-61
2021/05/27 08:45:26;;;;;;;0.85;0.60;;;;;;;;;;5097084;28;20484;-62
2021/05/27 08:47:51;;;;;;;0.57;0.57;;;;;;;;;;5097197;28;20052;-61
2021/05/27 08:50:17;;;;;;;1.48;0.60;;;;;;;;;;5097093;28;20050;-62
2021/05/27 08:52:42;;;;;;;2.83;0.80;;;;;;;;;;5097329;28;20035;-61
2021/05/27 08:55:08;;;;;;;0.70;0.70;;;;;;;;;;5097070;28;20438;-62
2021/05/27 08:57:34;;;;;;;0.93;0.70;;;;;;;;;;5096592;28;20031;-62
2021/05/27 08:59:59;;;;;;;1.83;0.90;;;;;;;;;;5097662;28;20099;-62
2021/05/27 09:02:26;;;;;;;0.70;0.70;;;;;;;;;;5097136;28;20493;-61
2021/05/27 09:04:51;;;;;;;1.33;0.85;;;;;;;;;;5096824;28;20044;-61
2021/05/27 09:07:17;;;;;;;1.25;0.80;;;;;;;;;;5097031;28;20449;-61
2021/05/27 09:09:51;;;;;;;0.73;0.70;;;;;;;;;;5097030;28;20047;-61
2021/05/27 09:12:33;;;;;;;1.30;0.90;;;;;;;;;;5096622;28;20031;-62
2021/05/27 09:15:00;;;;;;;1.75;0.90;;;;;;;;;;5078770;28;20090;-62
2021/05/27 09:17:25;;;;;;;1.73;0.80;;;;;;;;;;5113354;28;20043;-61
2021/05/27 09:20:10;;;;;;;0.75;0.75;;;;;;;;;;5098894;28;20023;-61
2021/05/27 09:22:35;;;;;;;0.65;0.57;;;;;;;;;;5117312;28;20118;-61
2021/05/27 09:25:01;;;;;;;0.80;0.60;;;;;;;;;;5116622;28;20054;-61
2021/05/27 09:27:53;;;;;;;1.10;0.98;;;;;;;;;;5116869;28;20117;-61
2021/05/27 09:30:19;;;;;;;0.57;0.57;;;;;;;;;;5113144;28;20112;-62
2021/05/27 09:32:45;;;;;;;1.58;0.90;;;;;;;;;;5116902;28;20465;-62
2021/05/27 09:35:11;;;;;;;0.80;0.80;;;;;;;;;;5098439;28;20032;-61
2021/05/27 09:37:45;;;;;;;0.88;0.70;;;;;;;;;;5116692;28;20022;-62
2021/05/27 09:40:11;;;;;;;0.50;0.47;;;;;;;;;;5097097;28;20090;-62
2021/05/27 09:42:49;;;;;;;1.00;0.90;;;;;;;;;;5116430;28;20031;-61
2021/05/27 09:45:15;;;;;;;0.55;0.40;;;;;;;;;;5116412;28;20024;-61
2021/05/27 09:47:41;;;;;;;0.85;0.57;;;;;;;;;;5116811;28;20015;-61
2021/05/27 09:50:06;;;;;;;0.65;0.65;;;;;;;;;;5115610;28;20073;-62
2021/05/27 09:52:39;;;;;;;0.95;0.68;;;;;;;;;;5116339;28;20020;-62
2021/05/27 09:55:09;;;;;;;0.90;0.90;;;;;;;;;;5116261;28;20485;-61
2021/05/27 09:57:36;;;;;;;1.13;0.80;;;;;;;;;;5116074;28;20077;-61
2021/05/27 10:00:01;;;;;;;0.82;0.82;;;;;;;;;;5116013;28;20019;-62
2021/05/27 10:02:33;;;;;;;1.05;1.05;;;;;;;;;;5115979;28;20389;-62
2021/05/27 10:04:58;;;;;;;1.50;0.70;;;;;;;;;;5115825;28;20556;-61
2021/05/27 10:07:40;;;;;;;2.05;1.00;;;;;;;;;;5115771;28;20106;-62
2021/05/27 10:10:07;;;;;;;2.05;0.73;;;;;;;;;;5115948;28;20024;-61
2021/05/27 10:12:37;;;;;;;2.88;1.05;;;;;;;;;;5115908;28;20105;-61
2021/05/27 10:15:03;;;;;;;0.63;0.63;;;;;;;;;;5115444;28;20551;-62
2021/05/27 10:17:29;;;;;;;0.45;0.45;;;;;;;;;;5115807;28;20023;-62
2021/05/27 10:19:55;;;;;;;0.73;0.73;;;;;;;;;;5080582;28;20019;-61
2021/05/27 10:22:21;;;;;;;2.28;1.10;;;;;;;;;;5097138;28;20023;-61
2021/05/27 10:24:46;;;;;;;0.88;0.88;;;;;;;;;;5115590;28;20416;-61
2021/05/27 10:27:12;;;;;;;1.40;0.80;;;;;;;;;;5115825;28;20042;-61
2021/05/27 10:29:38;;;;;;;0.70;0.70;;;;;;;;;;5115431;28;20040;-62
2021/05/27 10:32:04;;;;;;;1.42;0.40;;;;;;;;;;5115418;28;20099;-61
2021/05/27 10:34:46;;;;;;;0.60;0.60;;;;;;;;;;5115532;28;20051;-64
2021/05/27 10:37:13;;;;;;;1.08;0.60;;;;;;;;;;5115778;28;20024;-61
2021/05/27 10:39:39;;;;;;;1.38;0.80;;;;;;;;;;5097382;28;20529;-62
2021/05/27 10:42:05;;;;;;;0.70;0.68;;;;;;;;;;5115555;28;20058;-61
2021/05/27 10:44:31;;;;;;;0.90;0.77;;;;;;;;;;5114859;28;20024;-61
2021/05/27 10:46:56;;;;;;;0.55;0.55;;;;;;;;;;5115138;28;20031;-61
2021/05/27 10:49:45;;;;;;;0.93;0.60;;;;;;;;;;5097067;28;20090;-62
2021/05/27 10:52:35;;;;;;;1.13;0.95;;;;;;;;;;5114331;28;20057;-61
2021/05/27 10:55:03;;;;;;;1.23;0.82;;;;;;;;;;5115110;28;20053;-61
2021/05/27 10:57:41;;;;;;;1.55;0.80;;;;;;;;;;5114893;28;20066;-61
2021/05/27 11:00:18;;;;;;;0.70;0.70;;;;;;;;;;5114998;28;20028;-62
2021/05/27 11:02:44;;;;;;;0.77;0.70;;;;;;;;;;5114820;28;20027;-62
2021/05/27 11:05:13;;;;;;;0.95;0.70;;;;;;;;;;5096542;28;20031;-61
2021/05/27 11:07:38;;;;;;;1.13;1.02;;;;;;;;;;5114795;28;20092;-61
2021/05/27 11:10:24;;;;;;;2.55;1.10;;;;;;;;;;5114645;28;20511;-61
2021/05/27 11:13:02;;;;;;;2.95;1.58;;;;;;;;;;5114721;28;20084;-61
2021/05/27 11:15:28;;;;;;;0.70;0.70;;;;;;;;;;5114732;28;20019;-62
2021/05/27 11:18:03;;;;;;;0.90;0.90;;;;;;;;;;5115149;28;20020;-62
2021/05/27 11:20:31;;;;;;;0.85;0.85;;;;;;;;;;5114679;28;20020;-61
2021/05/27 11:23:07;;;;;;;1.52;1.08;;;;;;;;;;5114890;28;20427;-61
2021/05/27 11:25:34;;;;;;;1.65;1.40;;;;;;;;;;5114668;28;20028;-61
2021/05/27 11:28:00;;;;;;;1.13;0.90;;;;;;;;;;5096477;28;20484;-62
2021/05/27 11:30:33;;;;;;;0.68;0.68;;;;;;;;;;5114660;28;20024;-62
2021/05/27 11:33:03;;;;;;;0.90;0.90;;;;;;;;;;5114595;28;20016;-62
2021/05/27 11:35:30;;;;;;;0.73;0.73;;;;;;;;;;5114522;28;20039;-62
2021/05/27 11:37:56;;;;;;;1.25;1.13;;;;;;;;;;5114248;28;20521;-62
2021/05/27 11:40:29;;;;;;;1.58;0.77;;;;;;;;;;5095971;28;20438;-62
2021/05/27 11:42:55;;;;;;;2.08;0.25;;;;;;;;;;5114459;28;20490;-62
2021/05/27 11:45:23;;;;;;;0.60;0.60;;;;;;;;;;5096162;28;20043;-62
2021/05/27 11:48:29;;;;;;;0.93;0.70;;;;;;;;;;5114403;28;20015;-62
2021/05/27 11:51:05;;;;;;;0.52;0.52;;;;;;;;;;5031452;28;20087;-62
2021/05/27 11:53:46;;;;;;;0.70;0.70;;;;;;;;;;5031902;28;20080;-62
2021/05/27 11:56:12;;;;;;;0.80;0.80;;;;;;;;;;5067336;28;20454;-62
2021/05/27 11:58:42;;;;;;;1.13;0.77;;;;;;;;;;5114068;28;20024;-62
2021/05/27 12:01:27;;;;;;;0.60;0.60;;;;;;;;;;5114149;28;20382;-62
2021/05/27 12:04:00;;;;;;;1.02;0.60;;;;;;;;;;5114030;28;20107;-62
2021/05/27 12:06:25;;;;;;;0.65;0.50;;;;;;;;;;5095777;28;20024;-62
2021/05/27 12:08:51;;;;;;;0.88;0.88;;;;;;;;;;5114091;28;20395;-62
2021/05/27 12:11:27;;;;;;;1.15;0.50;;;;;;;;;;5113979;28;20026;-62
2021/05/27 12:14:00;;;;;;;0.60;0.60;;;;;;;;;;5114067;28;20024;-62
2021/05/27 12:16:29;;;;;;;1.40;0.45;;;;;;;;;;5113919;28;20030;-62
2021/05/27 12:19:05;;;;;;;0.52;0.52;;;;;;;;;;5114004;28;20476;-62
2021/05/27 12:21:31;;;;;;;2.03;0.82;;;;;;;;;;5095500;28;20028;-62
2021/05/27 12:23:57;;;;;;;1.08;0.75;;;;;;;;;;5113810;28;20019;-62
2021/05/27 12:26:22;;;;;;;0.70;0.60;;;;;;;;;;5113779;28;20035;-62
2021/05/27 12:28:48;;;;;;;0.68;0.45;;;;;;;;;;5113580;28;20492;-62
2021/05/27 12:31:14;;;;;;;0.85;0.77;;;;;;;;;;5114054;28;20027;-62
2021/05/27 12:33:40;;;;;;;0.75;0.60;;;;;;;;;;5113896;28;20027;-62
2021/05/27 12:36:07;;;;;;;2.65;0.80;;;;;;;;;;5113798;28;20063;-62
2021/05/27 12:38:33;;;;;;;0.70;0.70;;;;;;;;;;5113183;28;20039;-62
2021/05/27 12:41:00;;;;;;;2.38;0.93;;;;;;;;;;5113577;28;20024;-62
2021/05/27 12:43:33;;;;;;;1.63;0.77;;;;;;;;;;5113404;28;20515;-62
2021/05/27 12:45:59;;;;;;;0.75;0.75;;;;;;;;;;5113490;28;20063;-62
2021/05/27 12:48:26;;;;;;;0.80;0.75;;;;;;;;;;5113678;28;20426;-62
2021/05/27 12:51:06;;;;;;;0.52;0.52;;;;;;;;;;5113697;28;20489;-62
2021/05/27 12:53:32;;;;;;;1.02;0.70;;;;;;;;;;5094602;28;20028;-62
2021/05/27 12:56:18;;;;;;;2.35;0.77;;;;;;;;;;5112534;28;20359;-62
2021/05/27 12:58:50;;;;;;;0.80;0.80;;;;;;;;;;5083684;28;20043;-62
2021/05/27 13:01:17;;;;;;;2.35;0.80;;;;;;;;;;5113403;28;20036;-62
2021/05/27 13:03:47;;;;;;;0.40;0.40;;;;;;;;;;5094992;28;20020;-62
2021/05/27 13:06:15;;;;;;;1.30;0.70;;;;;;;;;;5113068;28;20070;-62
2021/05/27 13:08:40;;;;;;;0.70;0.70;;;;;;;;;;5113121;28;20106;-62
2021/05/27 13:11:23;;;;;;;0.60;0.60;;;;;;;;;;5113146;28;20015;-62
2021/05/27 13:13:49;;;;;;;1.60;1.00;;;;;;;;;;5113161;28;20027;-62
2021/05/27 13:16:32;;;;;;;1.08;0.95;;;;;;;;;;5115680;28;20379;-62
2021/05/27 13:18:58;;;;;;;1.45;1.00;;;;;;;;;;5116708;28;20489;-62
2021/05/27 13:21:34;;;;;;;1.48;0.98;;;;;;;;;;5098785;28;20080;-62
2021/05/27 13:24:11;;;;;;;0.98;0.90;;;;;;;;;;5117050;28;20031;-62
2021/05/27 13:26:37;;;;;;;2.35;0.60;;;;;;;;;;5117057;28;20028;-62
2021/05/27 13:29:05;;;;;;;2.08;0.60;;;;;;;;;;5117027;28;20064;-62
2021/05/27 13:31:35;;;;;;;0.60;0.60;;;;;;;;;;5117028;28;20385;-62
2021/05/27 13:34:01;;;;;;;1.00;0.88;;;;;;;;;;5116824;28;20054;-62
2021/05/27 13:36:26;;;;;;;0.70;0.70;;;;;;;;;;5116824;28;20031;-62
2021/05/27 13:38:52;;;;;;;1.33;1.17;;;;;;;;;;5116258;28;20052;-62
2021/05/27 13:41:18;;;;;;;0.70;0.70;;;;;;;;;;5116539;28;20039;-62
2021/05/27 13:43:43;;;;;;;3.90;0.90;;;;;;;;;;5116553;28;20036;-60
2021/05/27 13:46:09;;;;;;;1.83;0.55;;;;;;;;;;5116780;28;20066;-61
2021/05/27 13:48:35;;;;;;;2.22;0.63;;;;;;;;;;5116814;28;20016;-60
2021/05/27 13:51:01;;;;;;;0.60;0.60;;;;;;;;;;5116552;28;20027;-60
2021/05/27 13:53:27;;;;;;;0.63;0.63;;;;;;;;;;5116576;28;20015;-60
2021/05/27 13:55:57;;;;;;;0.80;0.63;;;;;;;;;;5116527;28;20535;-61
2021/05/27 13:58:24;;;;;;;0.50;0.50;;;;;;;;;;5098147;28;20031;-61
2021/05/27 14:00:50;;;;;;;0.75;0.60;;;;;;;;;;5116191;28;20035;-61
2021/05/27 14:03:18;;;;;;;0.70;0.60;;;;;;;;;;5116169;28;20531;-61
2021/05/27 14:05:43;;;;;;;0.77;0.70;;;;;;;;;;5115895;28;20073;-60
2021/05/27 14:08:09;;;;;;;1.30;1.20;;;;;;;;;;5115927;28;20020;-61
2021/05/27 14:10:34;;;;;;;1.23;0.88;;;;;;;;;;5115823;28;20011;-61
2021/05/27 14:13:02;;;;;;;0.95;0.73;;;;;;;;;;5115950;28;20028;-61
2021/05/27 14:15:28;;;;;;;2.38;0.98;;;;;;;;;;5116279;28;20062;-61
2021/05/27 14:17:53;;;;;;;3.15;1.70;;;;;;;;;;5116051;28;20389;-61
2021/05/27 14:20:20;;;;;;;2.67;1.10;;;;;;;;;;5116021;28;20020;-61
2021/05/27 14:22:45;;;;;;;1.70;0.93;;;;;;;;;;5115752;28;20026;-61
2021/05/27 14:25:12;;;;;;;0.82;0.82;;;;;;;;;;5097386;28;20110;-62
2021/05/27 14:27:39;;;;;;;2.33;1.10;;;;;;;;;;5114631;28;20030;-66
2021/05/27 14:30:06;;;;;;;1.17;1.08;;;;;;;;;;5115931;28;20019;-67
2021/05/27 14:32:31;;;;;;;1.00;0.70;;;;;;;;;;5115662;28;20024;-68
2021/05/27 14:34:57;;;;;;;0.75;0.65;;;;;;;;;;5115446;28;20007;-66
2021/05/27 14:37:22;;;;;;;0.70;0.57;;;;;;;;;;5115574;28;20020;-66
2021/05/27 14:39:48;;;;;;;2.17;1.17;;;;;;;;;;5115360;28;20052;-67
2021/05/27 14:42:13;;;;;;;0.80;0.80;;;;;;;;;;5097212;28;20034;-67
2021/05/27 14:44:39;;;;;;;1.92;0.90;;;;;;;;;;5115070;28;20068;-66
2021/05/27 14:47:04;;;;;;;1.17;0.88;;;;;;;;;;5115146;28;20087;-66
2021/05/27 14:49:30;;;;;;;0.90;0.80;;;;;;;;;;5115139;28;20078;-66
2021/05/27 14:51:55;;;;;;;1.88;1.35;;;;;;;;;;5115046;28;20059;-66